createdAt,value
2022-09-22T00:00:06.297Z,96193.00
2022-09-22T00:00:16.123Z,96196.00
2022-09-22T00:00:26.135Z,96192.00
2022-09-22T00:00:36.254Z,96194.00
2022-09-22T00:00:46.303Z,96196.00
2022-09-22T00:00:56.462Z,96192.00
2022-09-22T00:01:06.481Z,96195.00
2022-09-22T00:01:16.463Z,96195.00
2022-09-22T00:01:26.373Z,96198.00
2022-09-22T00:01:36.288Z,96195.00
2022-09-22T00:01:46.264Z,96197.00
2022-09-22T00:01:56.446Z,96194.00
2022-09-22T00:02:06.294Z,96193.00
2022-09-22T00:02:16.291Z,96197.00
2022-09-22T00:02:26.431Z,96194.00
2022-09-22T00:02:36.327Z,96194.00
2022-09-22T00:02:46.447Z,96193.00
2022-09-22T00:02:56.343Z,96194.00
2022-09-22T00:03:06.192Z,96191.00
2022-09-22T00:03:16.284Z,96193.00
2022-09-22T00:03:26.181Z,96191.00
2022-09-22T00:03:36.303Z,96196.00
2022-09-22T00:03:46.298Z,96192.00
2022-09-22T00:03:56.227Z,96198.00
2022-09-22T00:04:06.169Z,96198.00
2022-09-22T00:04:16.166Z,96198.00
2022-09-22T00:04:26.291Z,96196.00
2022-09-22T00:04:36.391Z,96194.00
2022-09-22T00:04:46.299Z,96196.00
2022-09-22T00:04:56.429Z,96196.00
2022-09-22T00:05:06.326Z,96195.00
2022-09-22T00:05:16.259Z,96197.00
2022-09-22T00:05:26.305Z,96199.00
2022-09-22T00:05:36.327Z,96199.00
2022-09-22T00:05:46.376Z,96196.00
2022-09-22T00:05:56.259Z,96199.00
2022-09-22T00:06:06.403Z,96195.00
2022-09-22T00:06:16.281Z,96199.00
2022-09-22T00:06:26.344Z,96199.00
2022-09-22T00:06:36.285Z,96196.00
2022-09-22T00:06:46.452Z,96200.00
2022-09-22T00:06:56.419Z,96201.00
2022-09-22T00:07:06.180Z,96203.00
2022-09-22T00:07:16.143Z,96201.00
2022-09-22T00:07:26.235Z,96199.00
2022-09-22T00:07:36.380Z,96200.00
2022-09-22T00:07:46.142Z,96202.00
2022-09-22T00:07:56.136Z,96204.00
2022-09-22T00:08:06.314Z,96202.00
2022-09-22T00:08:16.321Z,96200.00
2022-09-22T00:08:26.147Z,96199.00
2022-09-22T00:08:36.380Z,96198.00
2022-09-22T00:08:46.283Z,96199.00
2022-09-22T00:08:56.221Z,96196.00
2022-09-22T00:09:06.375Z,96198.00
2022-09-22T00:09:16.261Z,96199.00
2022-09-22T00:09:26.128Z,96201.00
2022-09-22T00:09:36.358Z,96200.00
2022-09-22T00:09:46.306Z,96197.00
2022-09-22T00:09:56.144Z,96199.00
2022-09-22T00:10:06.393Z,96198.00
2022-09-22T00:10:16.317Z,96195.00
2022-09-22T00:10:26.256Z,96199.00
2022-09-22T00:10:36.297Z,96200.00
2022-09-22T00:10:46.247Z,96200.00
2022-09-22T00:10:56.223Z,96201.00
2022-09-22T00:11:06.264Z,96202.00
2022-09-22T00:11:16.211Z,96204.00
2022-09-22T00:11:26.186Z,96199.00
2022-09-22T00:11:36.441Z,96201.00
2022-09-22T00:11:46.161Z,96200.00
2022-09-22T00:11:56.366Z,96202.00
2022-09-22T00:12:06.405Z,96202.00
2022-09-22T00:12:16.215Z,96198.00
2022-09-22T00:12:26.269Z,96197.00
2022-09-22T00:12:36.404Z,96200.00
2022-09-22T00:12:46.244Z,96197.00
2022-09-22T00:12:56.215Z,96200.00
2022-09-22T00:13:06.300Z,96199.00
2022-09-22T00:13:16.291Z,96197.00
2022-09-22T00:13:26.177Z,96198.00
2022-09-22T00:13:36.315Z,96198.00
2022-09-22T00:13:46.318Z,96203.00
2022-09-22T00:13:56.337Z,96200.00
2022-09-22T00:14:06.329Z,96200.00
2022-09-22T00:14:16.289Z,96199.00
2022-09-22T00:14:26.319Z,96199.00
2022-09-22T00:14:36.357Z,96196.00
2022-09-22T00:14:46.201Z,96197.00
2022-09-22T00:14:56.193Z,96195.00
2022-09-22T00:15:06.242Z,96199.00
2022-09-22T00:15:16.242Z,96198.00
2022-09-22T00:15:26.273Z,96197.00
2022-09-22T00:15:36.183Z,96198.00
2022-09-22T00:15:46.232Z,96197.00
2022-09-22T00:15:56.351Z,96195.00
2022-09-22T00:16:06.475Z,96196.00
2022-09-22T00:16:16.209Z,96195.00
2022-09-22T00:16:26.505Z,96194.00
2022-09-22T00:16:36.371Z,96201.00
2022-09-22T00:16:46.395Z,96198.00
2022-09-22T00:16:56.273Z,96198.00
2022-09-22T00:17:06.312Z,96197.00
2022-09-22T00:17:16.290Z,96198.00
2022-09-22T00:17:26.298Z,96198.00
2022-09-22T00:17:36.242Z,96198.00
2022-09-22T00:17:46.276Z,96194.00
2022-09-22T00:17:56.395Z,96196.00
2022-09-22T00:18:06.172Z,96197.00
2022-09-22T00:18:16.339Z,96198.00
2022-09-22T00:18:26.308Z,96199.00
2022-09-22T00:18:36.291Z,96198.00
2022-09-22T00:18:46.192Z,96198.00
2022-09-22T00:18:56.376Z,96195.00
2022-09-22T00:19:06.621Z,96197.00
2022-09-22T00:19:16.372Z,96200.00
2022-09-22T00:19:26.365Z,96193.00
2022-09-22T00:19:36.406Z,96193.00
2022-09-22T00:19:46.126Z,96194.00
2022-09-22T00:19:56.388Z,96199.00
2022-09-22T00:20:06.394Z,96193.00
2022-09-22T00:20:16.199Z,96195.00
2022-09-22T00:20:26.260Z,96197.00
2022-09-22T00:20:36.196Z,96195.00
2022-09-22T00:20:46.393Z,96197.00
2022-09-22T00:20:56.222Z,96193.00
2022-09-22T00:21:06.232Z,96192.00
2022-09-22T00:21:16.241Z,96194.00
2022-09-22T00:21:26.175Z,96195.00
2022-09-22T00:21:36.240Z,96197.00
2022-09-22T00:21:46.333Z,96195.00
2022-09-22T00:21:56.353Z,96198.00
2022-09-22T00:22:06.317Z,96196.00
2022-09-22T00:22:16.414Z,96197.00
2022-09-22T00:22:26.317Z,96198.00
2022-09-22T00:22:36.247Z,96196.00
2022-09-22T00:22:46.142Z,96197.00
2022-09-22T00:22:56.136Z,96196.00
2022-09-22T00:23:06.143Z,96196.00
2022-09-22T00:23:16.435Z,96195.00
2022-09-22T00:23:26.141Z,96198.00
2022-09-22T00:23:36.373Z,96197.00
2022-09-22T00:23:46.376Z,96196.00
2022-09-22T00:23:56.436Z,96195.00
2022-09-22T00:24:06.248Z,96195.00
2022-09-22T00:24:16.426Z,96193.00
2022-09-22T00:24:26.335Z,96195.00
2022-09-22T00:24:36.408Z,96195.00
2022-09-22T00:24:46.169Z,96194.00
2022-09-22T00:24:56.301Z,96193.00
2022-09-22T00:25:06.267Z,96193.00
2022-09-22T00:25:16.352Z,96195.00
2022-09-22T00:25:26.417Z,96194.00
2022-09-22T00:25:36.166Z,96197.00
2022-09-22T00:25:46.262Z,96195.00
2022-09-22T00:25:56.242Z,96191.00
2022-09-22T00:26:06.131Z,96198.00
2022-09-22T00:26:16.272Z,96194.00
2022-09-22T00:26:26.361Z,96194.00
2022-09-22T00:26:36.209Z,96199.00
2022-09-22T00:26:46.340Z,96195.00
2022-09-22T00:26:56.281Z,96196.00
2022-09-22T00:27:06.275Z,96195.00
2022-09-22T00:27:16.371Z,96195.00
2022-09-22T00:27:26.189Z,96192.00
2022-09-22T00:27:36.442Z,96194.00
2022-09-22T00:27:46.164Z,96194.00
2022-09-22T00:27:56.231Z,96192.00
2022-09-22T00:28:06.245Z,96195.00
2022-09-22T00:28:16.358Z,96192.00
2022-09-22T00:28:26.371Z,96193.00
2022-09-22T00:28:36.196Z,96192.00
2022-09-22T00:28:46.164Z,96194.00
2022-09-22T00:28:56.413Z,96194.00
2022-09-22T00:29:06.240Z,96190.00
2022-09-22T00:29:16.183Z,96188.00
2022-09-22T00:29:26.241Z,96193.00
2022-09-22T00:29:36.263Z,96188.00
2022-09-22T00:29:46.237Z,96195.00
2022-09-22T00:29:56.230Z,96192.00
2022-09-22T00:30:06.448Z,96193.00
2022-09-22T00:30:16.192Z,96190.00
2022-09-22T00:30:26.202Z,96188.00
2022-09-22T00:30:36.230Z,96190.00
2022-09-22T00:30:46.360Z,96190.00
2022-09-22T00:30:56.431Z,96192.00
2022-09-22T00:31:06.303Z,96190.00
2022-09-22T00:31:16.385Z,96189.00
2022-09-22T00:31:26.305Z,96190.00
2022-09-22T00:31:36.542Z,96195.00
2022-09-22T00:31:46.429Z,96190.00
2022-09-22T00:31:56.227Z,96189.00
2022-09-22T00:32:07.587Z,96190.00
2022-09-22T00:32:16.280Z,96187.00
2022-09-22T00:32:26.391Z,96188.00
2022-09-22T00:32:36.339Z,96188.00
2022-09-22T00:32:46.331Z,96188.00
2022-09-22T00:32:56.218Z,96188.00
2022-09-22T00:33:06.149Z,96192.00
2022-09-22T00:33:16.175Z,96191.00
2022-09-22T00:33:26.409Z,96191.00
2022-09-22T00:33:36.281Z,96187.00
2022-09-22T00:33:46.216Z,96189.00
2022-09-22T00:33:56.297Z,96190.00
2022-09-22T00:34:06.360Z,96189.00
2022-09-22T00:34:16.421Z,96188.00
2022-09-22T00:34:26.181Z,96185.00
2022-09-22T00:34:36.235Z,96192.00
2022-09-22T00:34:46.142Z,96187.00
2022-09-22T00:34:56.336Z,96188.00
2022-09-22T00:35:06.175Z,96186.00
2022-09-22T00:35:16.220Z,96187.00
2022-09-22T00:35:26.343Z,96187.00
2022-09-22T00:35:36.389Z,96189.00
2022-09-22T00:35:46.228Z,96187.00
2022-09-22T00:35:56.331Z,96187.00
2022-09-22T00:36:06.264Z,96182.00
2022-09-22T00:36:16.419Z,96183.00
2022-09-22T00:36:26.161Z,96187.00
2022-09-22T00:36:36.207Z,96185.00
2022-09-22T00:36:46.232Z,96183.00
2022-09-22T00:36:56.278Z,96188.00
2022-09-22T00:37:06.167Z,96186.00
2022-09-22T00:37:16.189Z,96189.00
2022-09-22T00:37:26.301Z,96188.00
2022-09-22T00:37:36.415Z,96186.00
2022-09-22T00:37:46.164Z,96187.00
2022-09-22T00:37:56.295Z,96187.00
2022-09-22T00:38:06.236Z,96186.00
2022-09-22T00:38:16.319Z,96184.00
2022-09-22T00:38:26.301Z,96183.00
2022-09-22T00:38:36.342Z,96186.00
2022-09-22T00:38:46.151Z,96186.00
2022-09-22T00:38:56.239Z,96184.00
2022-09-22T00:39:06.401Z,96185.00
2022-09-22T00:39:16.154Z,96186.00
2022-09-22T00:39:26.170Z,96185.00
2022-09-22T00:39:36.375Z,96187.00
2022-09-22T00:39:46.312Z,96184.00
2022-09-22T00:39:56.251Z,96184.00
2022-09-22T00:40:06.287Z,96185.00
2022-09-22T00:40:16.354Z,96184.00
2022-09-22T00:40:26.240Z,96185.00
2022-09-22T00:40:36.303Z,96188.00
2022-09-22T00:40:46.178Z,96187.00
2022-09-22T00:40:56.204Z,96185.00
2022-09-22T00:41:06.130Z,96186.00
2022-09-22T00:41:16.332Z,96182.00
2022-09-22T00:41:26.185Z,96185.00
2022-09-22T00:41:36.121Z,96182.00
2022-09-22T00:41:46.154Z,96187.00
2022-09-22T00:41:56.287Z,96181.00
2022-09-22T00:42:06.244Z,96179.00
2022-09-22T00:42:16.278Z,96181.00
2022-09-22T00:42:26.203Z,96180.00
2022-09-22T00:42:36.138Z,96180.00
2022-09-22T00:42:46.195Z,96181.00
2022-09-22T00:42:56.365Z,96182.00
2022-09-22T00:43:06.294Z,96182.00
2022-09-22T00:43:16.375Z,96178.00
2022-09-22T00:43:26.279Z,96178.00
2022-09-22T00:43:36.159Z,96181.00
2022-09-22T00:43:46.340Z,96182.00
2022-09-22T00:43:56.168Z,96182.00
2022-09-22T00:44:06.233Z,96179.00
2022-09-22T00:44:16.162Z,96177.00
2022-09-22T00:44:26.143Z,96177.00
2022-09-22T00:44:36.299Z,96178.00
2022-09-22T00:44:46.279Z,96175.00
2022-09-22T00:44:56.370Z,96176.00
2022-09-22T00:45:06.359Z,96177.00
2022-09-22T00:45:16.379Z,96176.00
2022-09-22T00:45:26.412Z,96173.00
2022-09-22T00:45:36.391Z,96178.00
2022-09-22T00:45:46.344Z,96179.00
2022-09-22T00:45:56.144Z,96173.00
2022-09-22T00:46:06.304Z,96174.00
2022-09-22T00:46:16.409Z,96173.00
2022-09-22T00:46:26.475Z,96170.00
2022-09-22T00:46:36.301Z,96173.00
2022-09-22T00:46:46.339Z,96169.00
2022-09-22T00:46:56.286Z,96175.00
2022-09-22T00:47:06.171Z,96176.00
2022-09-22T00:47:16.406Z,96172.00
2022-09-22T00:47:26.152Z,96173.00
2022-09-22T00:47:36.270Z,96167.00
2022-09-22T00:47:46.150Z,96170.00
2022-09-22T00:47:56.393Z,96170.00
2022-09-22T00:48:06.188Z,96169.00
2022-09-22T00:48:16.294Z,96170.00
2022-09-22T00:48:26.202Z,96169.00
2022-09-22T00:48:36.398Z,96172.00
2022-09-22T00:48:46.283Z,96169.00
2022-09-22T00:48:56.323Z,96169.00
2022-09-22T00:49:06.311Z,96169.00
2022-09-22T00:49:16.388Z,96170.00
2022-09-22T00:49:26.355Z,96171.00
2022-09-22T00:49:36.240Z,96171.00
2022-09-22T00:49:46.247Z,96172.00
2022-09-22T00:49:56.211Z,96170.00
2022-09-22T00:50:06.221Z,96168.00
2022-09-22T00:50:16.383Z,96168.00
2022-09-22T00:50:26.183Z,96168.00
2022-09-22T00:50:36.135Z,96172.00
2022-09-22T00:50:46.195Z,96168.00
2022-09-22T00:50:56.378Z,96165.00
2022-09-22T00:51:06.133Z,96172.00
2022-09-22T00:51:16.167Z,96170.00
2022-09-22T00:51:26.413Z,96170.00
2022-09-22T00:51:36.419Z,96172.00
2022-09-22T00:51:46.380Z,96165.00
2022-09-22T00:51:56.247Z,96165.00
2022-09-22T00:52:06.253Z,96164.00
2022-09-22T00:52:16.326Z,96169.00
2022-09-22T00:52:26.388Z,96170.00
2022-09-22T00:52:36.275Z,96170.00
2022-09-22T00:52:46.251Z,96167.00
2022-09-22T00:52:56.378Z,96162.00
2022-09-22T00:53:06.364Z,96165.00
2022-09-22T00:53:16.216Z,96165.00
2022-09-22T00:53:26.344Z,96165.00
2022-09-22T00:53:36.303Z,96166.00
2022-09-22T00:53:46.302Z,96166.00
2022-09-22T00:53:56.350Z,96166.00
2022-09-22T00:54:06.438Z,96165.00
2022-09-22T00:54:16.189Z,96164.00
2022-09-22T00:54:26.413Z,96164.00
2022-09-22T00:54:36.346Z,96164.00
2022-09-22T00:54:46.182Z,96164.00
2022-09-22T00:54:56.398Z,96167.00
2022-09-22T00:55:06.290Z,96164.00
2022-09-22T00:55:16.239Z,96164.00
2022-09-22T00:55:26.282Z,96162.00
2022-09-22T00:55:36.229Z,96161.00
2022-09-22T00:55:46.371Z,96162.00
2022-09-22T00:55:56.359Z,96163.00
2022-09-22T00:56:06.159Z,96163.00
2022-09-22T00:56:16.198Z,96165.00
2022-09-22T00:56:26.348Z,96160.00
2022-09-22T00:56:36.255Z,96160.00
2022-09-22T00:56:46.316Z,96160.00
2022-09-22T00:56:56.327Z,96165.00
2022-09-22T00:57:06.307Z,96161.00
2022-09-22T00:57:16.195Z,96161.00
2022-09-22T00:57:26.360Z,96160.00
2022-09-22T00:57:36.161Z,96158.00
2022-09-22T00:57:46.400Z,96159.00
2022-09-22T00:57:56.192Z,96163.00
2022-09-22T00:58:06.195Z,96163.00
2022-09-22T00:58:16.223Z,96160.00
2022-09-22T00:58:26.172Z,96162.00
2022-09-22T00:58:36.406Z,96159.00
2022-09-22T00:58:46.217Z,96157.00
2022-09-22T00:58:56.286Z,96160.00
2022-09-22T00:59:06.216Z,96161.00
2022-09-22T00:59:16.261Z,96160.00
2022-09-22T00:59:26.160Z,96159.00
2022-09-22T00:59:36.380Z,96159.00
2022-09-22T00:59:46.389Z,96156.00
2022-09-22T00:59:56.432Z,96157.00
2022-09-22T01:00:06.139Z,96156.00
2022-09-22T01:00:16.300Z,96160.00
2022-09-22T01:00:26.221Z,96158.00
2022-09-22T01:00:36.386Z,96158.00
2022-09-22T01:00:46.294Z,96156.00
2022-09-22T01:00:56.460Z,96159.00
2022-09-22T01:01:06.393Z,96158.00
2022-09-22T01:01:16.211Z,96157.00
2022-09-22T01:01:26.251Z,96159.00
2022-09-22T01:01:36.246Z,96156.00
2022-09-22T01:01:46.178Z,96156.00
2022-09-22T01:01:56.332Z,96157.00
2022-09-22T01:02:06.464Z,96157.00
2022-09-22T01:02:16.398Z,96160.00
2022-09-22T01:02:26.338Z,96160.00
2022-09-22T01:02:36.372Z,96155.00
2022-09-22T01:02:46.245Z,96160.00
2022-09-22T01:02:56.369Z,96157.00
2022-09-22T01:03:06.164Z,96160.00
2022-09-22T01:03:16.346Z,96158.00
2022-09-22T01:03:29.683Z,96158.00
2022-09-22T01:03:36.423Z,96160.00
2022-09-22T01:03:46.314Z,96162.00
2022-09-22T01:03:56.170Z,96158.00
2022-09-22T01:04:06.134Z,96159.00
2022-09-22T01:04:16.258Z,96158.00
2022-09-22T01:04:26.169Z,96158.00
2022-09-22T01:04:36.274Z,96159.00
2022-09-22T01:04:46.311Z,96154.00
2022-09-22T01:04:56.426Z,96158.00
2022-09-22T01:05:06.194Z,96163.00
2022-09-22T01:05:16.276Z,96158.00
2022-09-22T01:05:26.385Z,96156.00
2022-09-22T01:05:36.394Z,96158.00
2022-09-22T01:05:46.412Z,96159.00
2022-09-22T01:05:56.130Z,96159.00
2022-09-22T01:06:06.281Z,96154.00
2022-09-22T01:06:16.141Z,96157.00
2022-09-22T01:06:26.220Z,96163.00
2022-09-22T01:06:36.392Z,96158.00
2022-09-22T01:06:46.134Z,96159.00
2022-09-22T01:06:56.275Z,96154.00
2022-09-22T01:07:06.198Z,96157.00
2022-09-22T01:07:16.430Z,96157.00
2022-09-22T01:07:26.122Z,96155.00
2022-09-22T01:07:36.287Z,96154.00
2022-09-22T01:07:46.271Z,96157.00
2022-09-22T01:07:56.315Z,96157.00
2022-09-22T01:08:06.383Z,96158.00
2022-09-22T01:08:16.386Z,96159.00
2022-09-22T01:08:26.134Z,96159.00
2022-09-22T01:08:36.303Z,96157.00
2022-09-22T01:08:46.253Z,96157.00
2022-09-22T01:08:56.322Z,96157.00
2022-09-22T01:09:06.281Z,96156.00
2022-09-22T01:09:16.268Z,96157.00
2022-09-22T01:09:26.402Z,96154.00
2022-09-22T01:09:36.234Z,96155.00
2022-09-22T01:09:46.155Z,96159.00
2022-09-22T01:09:56.379Z,96158.00
2022-09-22T01:10:06.154Z,96155.00
2022-09-22T01:10:16.141Z,96154.00
2022-09-22T01:10:26.173Z,96153.00
2022-09-22T01:10:36.223Z,96155.00
2022-09-22T01:10:46.196Z,96154.00
2022-09-22T01:10:56.143Z,96154.00
2022-09-22T01:11:06.147Z,96149.00
2022-09-22T01:11:16.318Z,96150.00
2022-09-22T01:11:26.151Z,96150.00
2022-09-22T01:11:36.162Z,96151.00
2022-09-22T01:11:46.297Z,96152.00
2022-09-22T01:11:56.238Z,96154.00
2022-09-22T01:12:06.199Z,96150.00
2022-09-22T01:12:16.246Z,96151.00
2022-09-22T01:12:26.140Z,96150.00
2022-09-22T01:12:36.257Z,96153.00
2022-09-22T01:12:46.353Z,96155.00
2022-09-22T01:12:56.194Z,96155.00
2022-09-22T01:13:06.377Z,96152.00
2022-09-22T01:13:16.194Z,96151.00
2022-09-22T01:13:26.240Z,96150.00
2022-09-22T01:13:36.373Z,96149.00
2022-09-22T01:13:46.151Z,96150.00
2022-09-22T01:13:56.129Z,96150.00
2022-09-22T01:14:06.491Z,96150.00
2022-09-22T01:14:16.420Z,96150.00
2022-09-22T01:14:26.350Z,96151.00
2022-09-22T01:14:36.141Z,96150.00
2022-09-22T01:14:46.390Z,96151.00
2022-09-22T01:14:56.366Z,96147.00
2022-09-22T01:15:06.358Z,96151.00
2022-09-22T01:15:16.321Z,96145.00
2022-09-22T01:15:26.286Z,96148.00
2022-09-22T01:15:36.469Z,96150.00
2022-09-22T01:15:46.354Z,96149.00
2022-09-22T01:15:56.352Z,96144.00
2022-09-22T01:16:06.362Z,96145.00
2022-09-22T01:16:16.409Z,96149.00
2022-09-22T01:16:26.400Z,96149.00
2022-09-22T01:16:36.257Z,96145.00
2022-09-22T01:16:46.319Z,96149.00
2022-09-22T01:16:56.196Z,96146.00
2022-09-22T01:17:06.369Z,96149.00
2022-09-22T01:17:16.230Z,96143.00
2022-09-22T01:17:26.320Z,96146.00
2022-09-22T01:17:36.226Z,96145.00
2022-09-22T01:17:46.286Z,96146.00
2022-09-22T01:17:56.170Z,96141.00
2022-09-22T01:18:06.354Z,96143.00
2022-09-22T01:18:16.335Z,96144.00
2022-09-22T01:18:26.360Z,96142.00
2022-09-22T01:18:36.178Z,96140.00
2022-09-22T01:18:46.338Z,96140.00
2022-09-22T01:18:56.176Z,96140.00
2022-09-22T01:19:06.155Z,96141.00
2022-09-22T01:19:16.204Z,96138.00
2022-09-22T01:19:26.250Z,96143.00
2022-09-22T01:19:36.391Z,96140.00
2022-09-22T01:19:46.205Z,96137.00
2022-09-22T01:19:56.285Z,96138.00
2022-09-22T01:20:06.255Z,96140.00
2022-09-22T01:20:16.349Z,96140.00
2022-09-22T01:20:26.167Z,96139.00
2022-09-22T01:20:36.413Z,96140.00
2022-09-22T01:20:46.290Z,96137.00
2022-09-22T01:20:56.409Z,96138.00
2022-09-22T01:21:06.340Z,96140.00
2022-09-22T01:21:16.435Z,96139.00
2022-09-22T01:21:26.185Z,96135.00
2022-09-22T01:21:36.316Z,96136.00
2022-09-22T01:21:46.441Z,96139.00
2022-09-22T01:21:56.253Z,96135.00
2022-09-22T01:22:06.190Z,96132.00
2022-09-22T01:22:16.371Z,96134.00
2022-09-22T01:22:26.150Z,96135.00
2022-09-22T01:22:36.196Z,96135.00
2022-09-22T01:22:46.329Z,96135.00
2022-09-22T01:22:56.256Z,96136.00
2022-09-22T01:23:06.346Z,96136.00
2022-09-22T01:23:16.396Z,96135.00
2022-09-22T01:23:26.310Z,96138.00
2022-09-22T01:23:36.342Z,96136.00
2022-09-22T01:23:46.288Z,96135.00
2022-09-22T01:23:56.352Z,96138.00
2022-09-22T01:24:06.478Z,96133.00
2022-09-22T01:24:16.338Z,96138.00
2022-09-22T01:24:26.278Z,96136.00
2022-09-22T01:24:36.364Z,96138.00
2022-09-22T01:24:46.354Z,96140.00
2022-09-22T01:24:56.177Z,96134.00
2022-09-22T01:25:06.368Z,96138.00
2022-09-22T01:25:16.397Z,96138.00
2022-09-22T01:25:26.393Z,96138.00
2022-09-22T01:25:36.249Z,96134.00
2022-09-22T01:25:46.127Z,96137.00
2022-09-22T01:25:56.179Z,96139.00
2022-09-22T01:26:06.143Z,96141.00
2022-09-22T01:26:16.155Z,96138.00
2022-09-22T01:26:26.369Z,96140.00
2022-09-22T01:26:36.267Z,96139.00
2022-09-22T01:26:46.237Z,96138.00
2022-09-22T01:26:56.522Z,96141.00
2022-09-22T01:27:06.406Z,96136.00
2022-09-22T01:27:16.220Z,96136.00
2022-09-22T01:27:26.232Z,96136.00
2022-09-22T01:27:36.355Z,96139.00
2022-09-22T01:27:46.311Z,96136.00
2022-09-22T01:27:56.291Z,96134.00
2022-09-22T01:28:06.234Z,96140.00
2022-09-22T01:28:16.266Z,96135.00
2022-09-22T01:28:26.308Z,96138.00
2022-09-22T01:28:36.195Z,96137.00
2022-09-22T01:28:46.129Z,96133.00
2022-09-22T01:28:56.472Z,96138.00
2022-09-22T01:29:06.165Z,96131.00
2022-09-22T01:29:16.228Z,96137.00
2022-09-22T01:29:26.372Z,96130.00
2022-09-22T01:29:36.400Z,96132.00
2022-09-22T01:29:46.141Z,96131.00
2022-09-22T01:29:56.220Z,96132.00
2022-09-22T01:30:06.340Z,96137.00
2022-09-22T01:30:16.160Z,96131.00
2022-09-22T01:30:26.325Z,96132.00
2022-09-22T01:30:36.154Z,96132.00
2022-09-22T01:30:46.151Z,96129.00
2022-09-22T01:30:56.323Z,96130.00
2022-09-22T01:31:06.418Z,96127.00
2022-09-22T01:31:16.392Z,96130.00
2022-09-22T01:31:26.412Z,96130.00
2022-09-22T01:31:36.392Z,96128.00
2022-09-22T01:31:46.382Z,96129.00
2022-09-22T01:31:56.276Z,96128.00
2022-09-22T01:32:06.149Z,96129.00
2022-09-22T01:32:16.194Z,96127.00
2022-09-22T01:32:26.166Z,96127.00
2022-09-22T01:32:36.352Z,96129.00
2022-09-22T01:32:46.257Z,96128.00
2022-09-22T01:32:56.272Z,96132.00
2022-09-22T01:33:06.331Z,96128.00
2022-09-22T01:33:16.145Z,96129.00
2022-09-22T01:33:26.376Z,96127.00
2022-09-22T01:33:36.313Z,96129.00
2022-09-22T01:33:46.237Z,96131.00
2022-09-22T01:33:56.278Z,96128.00
2022-09-22T01:34:06.417Z,96131.00
2022-09-22T01:34:16.329Z,96129.00
2022-09-22T01:34:26.364Z,96134.00
2022-09-22T01:34:36.345Z,96130.00
2022-09-22T01:34:46.206Z,96129.00
2022-09-22T01:34:56.328Z,96128.00
2022-09-22T01:35:06.282Z,96132.00
2022-09-22T01:35:16.274Z,96131.00
2022-09-22T01:35:26.160Z,96129.00
2022-09-22T01:35:36.390Z,96133.00
2022-09-22T01:35:46.287Z,96133.00
2022-09-22T01:35:56.176Z,96136.00
2022-09-22T01:36:06.258Z,96130.00
2022-09-22T01:36:16.273Z,96136.00
2022-09-22T01:36:26.341Z,96133.00
2022-09-22T01:36:36.244Z,96128.00
2022-09-22T01:36:46.310Z,96135.00
2022-09-22T01:36:56.426Z,96130.00
2022-09-22T01:37:06.127Z,96132.00
2022-09-22T01:37:16.142Z,96133.00
2022-09-22T01:37:26.301Z,96134.00
2022-09-22T01:37:36.395Z,96130.00
2022-09-22T01:37:46.354Z,96133.00
2022-09-22T01:37:56.169Z,96134.00
2022-09-22T01:38:06.182Z,96130.00
2022-09-22T01:38:16.157Z,96135.00
2022-09-22T01:38:26.415Z,96137.00
2022-09-22T01:38:36.287Z,96127.00
2022-09-22T01:38:46.204Z,96139.00
2022-09-22T01:38:56.454Z,96136.00
2022-09-22T01:39:06.286Z,96136.00
2022-09-22T01:39:16.157Z,96133.00
2022-09-22T01:39:26.215Z,96141.00
2022-09-22T01:39:36.117Z,96136.00
2022-09-22T01:39:46.266Z,96134.00
2022-09-22T01:39:56.244Z,96134.00
2022-09-22T01:40:06.229Z,96137.00
2022-09-22T01:40:16.398Z,96135.00
2022-09-22T01:40:26.380Z,96131.00
2022-09-22T01:40:36.226Z,96129.00
2022-09-22T01:40:46.449Z,96130.00
2022-09-22T01:40:56.126Z,96132.00
2022-09-22T01:41:06.153Z,96134.00
2022-09-22T01:41:16.208Z,96134.00
2022-09-22T01:41:26.167Z,96132.00
2022-09-22T01:41:36.391Z,96131.00
2022-09-22T01:41:46.180Z,96130.00
2022-09-22T01:41:56.308Z,96127.00
2022-09-22T01:42:06.123Z,96128.00
2022-09-22T01:42:16.130Z,96127.00
2022-09-22T01:42:26.267Z,96131.00
2022-09-22T01:42:36.202Z,96132.00
2022-09-22T01:42:46.432Z,96130.00
2022-09-22T01:42:56.367Z,96129.00
2022-09-22T01:43:06.387Z,96130.00
2022-09-22T01:43:16.263Z,96127.00
2022-09-22T01:43:26.132Z,96125.00
2022-09-22T01:43:36.417Z,96130.00
2022-09-22T01:43:46.399Z,96128.00
2022-09-22T01:43:56.138Z,96128.00
2022-09-22T01:44:06.143Z,96127.00
2022-09-22T01:44:16.383Z,96128.00
2022-09-22T01:44:26.285Z,96127.00
2022-09-22T01:44:36.144Z,96125.00
2022-09-22T01:44:46.340Z,96127.00
2022-09-22T01:44:56.245Z,96126.00
2022-09-22T01:45:06.312Z,96127.00
2022-09-22T01:45:16.448Z,96127.00
2022-09-22T01:45:26.356Z,96127.00
2022-09-22T01:45:36.416Z,96124.00
2022-09-22T01:45:46.210Z,96125.00
2022-09-22T01:45:56.222Z,96124.00
2022-09-22T01:46:06.208Z,96126.00
2022-09-22T01:46:16.269Z,96125.00
2022-09-22T01:46:26.452Z,96130.00
2022-09-22T01:46:36.398Z,96127.00
2022-09-22T01:46:46.438Z,96125.00
2022-09-22T01:46:56.142Z,96128.00
2022-09-22T01:47:06.204Z,96125.00
2022-09-22T01:47:16.177Z,96124.00
2022-09-22T01:47:26.259Z,96122.00
2022-09-22T01:47:36.278Z,96125.00
2022-09-22T01:47:46.280Z,96120.00
2022-09-22T01:47:56.409Z,96123.00
2022-09-22T01:48:06.252Z,96123.00
2022-09-22T01:48:16.219Z,96122.00
2022-09-22T01:48:26.273Z,96122.00
2022-09-22T01:48:36.225Z,96120.00
2022-09-22T01:48:46.295Z,96121.00
2022-09-22T01:48:56.321Z,96120.00
2022-09-22T01:49:06.119Z,96119.00
2022-09-22T01:49:16.148Z,96124.00
2022-09-22T01:49:26.295Z,96123.00
2022-09-22T01:49:36.300Z,96123.00
2022-09-22T01:49:46.303Z,96119.00
2022-09-22T01:49:56.363Z,96122.00
2022-09-22T01:50:06.343Z,96120.00
2022-09-22T01:50:16.568Z,96119.00
2022-09-22T01:50:26.152Z,96122.00
2022-09-22T01:50:36.378Z,96121.00
2022-09-22T01:50:46.264Z,96124.00
2022-09-22T01:50:56.246Z,96120.00
2022-09-22T01:51:06.290Z,96121.00
2022-09-22T01:51:16.154Z,96121.00
2022-09-22T01:51:26.280Z,96121.00
2022-09-22T01:51:36.398Z,96121.00
2022-09-22T01:51:46.379Z,96120.00
2022-09-22T01:51:56.182Z,96117.00
2022-09-22T01:52:06.195Z,96119.00
2022-09-22T01:52:16.376Z,96120.00
2022-09-22T01:52:26.244Z,96121.00
2022-09-22T01:52:36.263Z,96122.00
2022-09-22T01:52:46.298Z,96119.00
2022-09-22T01:52:56.247Z,96121.00
2022-09-22T01:53:06.390Z,96119.00
2022-09-22T01:53:16.217Z,96119.00
2022-09-22T01:53:26.401Z,96124.00
2022-09-22T01:53:36.346Z,96121.00
2022-09-22T01:53:46.140Z,96124.00
2022-09-22T01:53:56.186Z,96122.00
2022-09-22T01:54:06.294Z,96118.00
2022-09-22T01:54:16.382Z,96123.00
2022-09-22T01:54:26.144Z,96118.00
2022-09-22T01:54:36.348Z,96118.00
2022-09-22T01:54:46.270Z,96122.00
2022-09-22T01:54:56.194Z,96122.00
2022-09-22T01:55:06.230Z,96120.00
2022-09-22T01:55:16.224Z,96123.00
2022-09-22T01:55:26.154Z,96121.00
2022-09-22T01:55:36.217Z,96120.00
2022-09-22T01:55:46.126Z,96120.00
2022-09-22T01:55:56.299Z,96121.00
2022-09-22T01:56:06.405Z,96120.00
2022-09-22T01:56:16.198Z,96120.00
2022-09-22T01:56:26.133Z,96119.00
2022-09-22T01:56:36.268Z,96120.00
2022-09-22T01:56:46.320Z,96120.00
2022-09-22T01:56:56.379Z,96120.00
2022-09-22T01:57:06.277Z,96122.00
2022-09-22T01:57:16.366Z,96120.00
2022-09-22T01:57:26.140Z,96122.00